createdAt,value
2023-01-25T00:01:11.678Z,103900.00
2023-01-25T00:03:39.771Z,103869.59
2023-01-25T00:06:08.710Z,103880.88
2023-01-25T00:08:38.673Z,103893.94
2023-01-25T00:11:08.221Z,103893.13
2023-01-25T00:13:36.136Z,103886.19
2023-01-25T00:16:04.252Z,103884.41
2023-01-25T00:18:32.456Z,103890.56
2023-01-25T00:21:00.840Z,103891.44
2023-01-25T00:23:28.860Z,103888.81
2023-01-25T00:26:01.873Z,103884.41
2023-01-25T00:28:29.836Z,103876.66
2023-01-25T00:31:00.750Z,103871.38
2023-01-25T00:33:40.823Z,103865.31
2023-01-25T00:36:34.264Z,103867.06
2023-01-25T00:39:02.210Z,103866.22
2023-01-25T00:41:31.841Z,103840.22
2023-01-25T00:43:59.915Z,103866.28
2023-01-25T00:46:27.936Z,103849.78
2023-01-25T00:48:58.103Z,103848.00
2023-01-25T00:51:26.216Z,103864.44
2023-01-25T00:53:54.595Z,103859.22
2023-01-25T00:56:24.490Z,103860.88
2023-01-25T00:58:53.866Z,103840.81
2023-01-25T01:01:32.004Z,103845.88
2023-01-25T01:04:00.081Z,103858.88
2023-01-25T01:06:28.074Z,103850.94
2023-01-25T01:09:25.073Z,103856.13
2023-01-25T01:11:53.963Z,103852.59
2023-01-25T01:14:59.137Z,103853.38
2023-01-25T01:17:29.970Z,103854.28
2023-01-25T01:20:00.248Z,103855.06
2023-01-25T01:22:28.297Z,103847.09
2023-01-25T01:24:56.299Z,103827.00
2023-01-25T01:27:24.739Z,103847.84
2023-01-25T01:29:52.777Z,103845.16
2023-01-25T01:32:22.481Z,103843.28
2023-01-25T01:34:53.846Z,103844.09
2023-01-25T01:37:21.872Z,103853.66
2023-01-25T01:39:49.915Z,103853.56
2023-01-25T01:42:17.941Z,103851.81
2023-01-25T01:44:48.416Z,103861.34
2023-01-25T01:47:19.196Z,103855.22
2023-01-25T01:49:55.143Z,103851.63
2023-01-25T01:52:26.095Z,103852.47
2023-01-25T01:54:55.660Z,103861.94
2023-01-25T01:57:27.539Z,103864.53
2023-01-25T01:59:58.393Z,103859.19
2023-01-25T02:02:26.692Z,103867.00
2023-01-25T02:04:58.429Z,103842.81
2023-01-25T02:07:31.145Z,103879.22
2023-01-25T02:10:01.590Z,103876.59
2023-01-25T02:12:29.808Z,103859.28
2023-01-25T02:14:57.864Z,103886.28
2023-01-25T02:17:28.211Z,103878.44
2023-01-25T02:20:03.187Z,103851.50
2023-01-25T02:22:41.015Z,103879.38
2023-01-25T02:25:11.269Z,103884.53
2023-01-25T02:27:40.737Z,103867.91
2023-01-25T02:30:10.810Z,103869.53
2023-01-25T02:32:40.312Z,103847.72
2023-01-25T02:35:15.837Z,103851.91
2023-01-25T02:37:43.897Z,103870.97
2023-01-25T02:40:14.038Z,103848.34
2023-01-25T02:42:43.284Z,103850.81
2023-01-25T02:45:11.934Z,103855.94
2023-01-25T02:47:40.275Z,103829.03
2023-01-25T02:50:09.154Z,103847.13
2023-01-25T02:52:37.259Z,103851.44
2023-01-25T02:55:06.017Z,103845.31
2023-01-25T02:57:35.965Z,103851.44
2023-01-25T03:00:04.342Z,103845.31
2023-01-25T03:02:34.581Z,103854.81
2023-01-25T03:05:05.487Z,103835.69
2023-01-25T03:07:33.916Z,103849.41
2023-01-25T03:10:01.953Z,103851.16
2023-01-25T03:12:31.351Z,103859.03
2023-01-25T03:15:01.487Z,103853.03
2023-01-25T03:17:31.221Z,103857.53
2023-01-25T03:19:59.254Z,103860.28
2023-01-25T03:22:27.756Z,103847.16
2023-01-25T03:24:57.324Z,103847.97
2023-01-25T03:27:25.701Z,103855.75
2023-01-25T03:30:02.682Z,103860.16
2023-01-25T03:32:36.537Z,103858.47
2023-01-25T03:35:11.269Z,103853.34
2023-01-25T03:37:42.184Z,103857.81
2023-01-25T03:40:12.056Z,103849.91
2023-01-25T03:42:43.097Z,103853.19
2023-01-25T03:45:14.495Z,103860.06
2023-01-25T03:47:45.200Z,103856.41
2023-01-25T03:50:13.338Z,103855.44
2023-01-25T03:52:48.434Z,103849.22
2023-01-25T03:55:17.096Z,103844.72
2023-01-25T03:57:49.094Z,103848.13
2023-01-25T04:00:21.209Z,103838.63
2023-01-25T04:02:57.040Z,103843.72
2023-01-25T04:05:25.270Z,103857.63
2023-01-25T04:07:57.471Z,103851.44
2023-01-25T04:10:33.998Z,103835.56
2023-01-25T04:13:02.280Z,103842.56
2023-01-25T04:15:35.691Z,103836.47
2023-01-25T04:18:12.471Z,103841.72
2023-01-25T04:20:42.297Z,103838.19
2023-01-25T04:23:12.918Z,103846.09
2023-01-25T04:25:42.900Z,103835.56
2023-01-25T04:28:15.155Z,103839.94
2023-01-25T04:30:45.139Z,103836.34
2023-01-25T04:33:13.329Z,103836.25
2023-01-25T04:35:42.769Z,103838.03
2023-01-25T04:38:11.009Z,103824.78
2023-01-25T04:40:41.789Z,103840.41
2023-01-25T04:43:09.955Z,103832.63
2023-01-25T04:45:38.196Z,103841.41
2023-01-25T04:48:14.058Z,103841.38
2023-01-25T04:50:49.686Z,103832.50
2023-01-25T04:53:22.921Z,103837.63
2023-01-25T04:55:52.497Z,103834.09
2023-01-25T04:58:20.681Z,103830.44
2023-01-25T05:00:50.375Z,103820.75
2023-01-25T05:03:31.979Z,103807.66
2023-01-25T05:06:02.616Z,103812.03
2023-01-25T05:08:30.656Z,103817.09
2023-01-25T05:11:02.176Z,103817.09
2023-01-25T05:13:52.152Z,103812.66
2023-01-25T05:16:27.781Z,103810.84
2023-01-25T05:18:59.777Z,103805.66
2023-01-25T05:21:53.273Z,103795.91
2023-01-25T05:24:21.529Z,103806.41
2023-01-25T05:27:03.704Z,103795.06
2023-01-25T05:29:54.980Z,103796.00
2023-01-25T05:32:44.586Z,103791.63
2023-01-25T05:35:15.651Z,103776.78
2023-01-25T05:37:44.834Z,103781.09
2023-01-25T05:40:19.866Z,103772.31
2023-01-25T05:42:54.806Z,103775.75
2023-01-25T05:45:24.667Z,103766.94
2023-01-25T05:47:55.914Z,103750.41
2023-01-25T05:50:27.046Z,103770.38
2023-01-25T05:53:05.494Z,103759.00
2023-01-25T05:55:38.979Z,103747.56
2023-01-25T05:58:10.944Z,103746.00
2023-01-25T06:00:40.083Z,103762.31
2023-01-25T06:03:08.353Z,103760.59
2023-01-25T06:05:39.501Z,103753.50
2023-01-25T06:08:09.044Z,103747.28
2023-01-25T06:10:45.635Z,103729.16
2023-01-25T06:13:13.797Z,103756.75
2023-01-25T06:15:43.558Z,103747.97
2023-01-25T06:18:32.847Z,103746.34
2023-01-25T06:21:17.815Z,103731.78
2023-01-25T06:23:46.146Z,103748.13
2023-01-25T06:26:14.858Z,103746.34
2023-01-25T06:28:43.537Z,103731.63
2023-01-25T06:31:12.751Z,103737.69
2023-01-25T06:33:48.691Z,103746.22
2023-01-25T06:36:20.861Z,103739.25
2023-01-25T06:38:49.750Z,103721.13
2023-01-25T06:41:17.741Z,103747.06
2023-01-25T06:43:45.894Z,103746.19
2023-01-25T06:46:13.942Z,103751.44
2023-01-25T06:48:43.170Z,103751.38
2023-01-25T06:51:15.322Z,103754.00
2023-01-25T06:53:45.915Z,103748.75
2023-01-25T06:56:17.606Z,103744.41
2023-01-25T06:58:45.887Z,103767.13
2023-01-25T07:01:14.901Z,103755.66
2023-01-25T07:03:43.107Z,103760.94
2023-01-25T07:06:11.730Z,103764.25
2023-01-25T07:08:42.626Z,103736.53
2023-01-25T07:11:14.186Z,103769.44
2023-01-25T07:13:45.824Z,103739.00
2023-01-25T07:16:15.112Z,103740.78
2023-01-25T07:18:43.270Z,103756.34
2023-01-25T07:21:11.983Z,103751.09
2023-01-25T07:23:44.205Z,103761.53
2023-01-25T07:26:20.784Z,103751.09
2023-01-25T07:28:48.942Z,103742.53
2023-01-25T07:31:17.088Z,103749.41
2023-01-25T07:33:49.341Z,103755.31
2023-01-25T07:36:19.798Z,103756.16
2023-01-25T07:38:47.962Z,103758.78
2023-01-25T07:41:17.389Z,103753.34
2023-01-25T07:43:45.938Z,103751.50
2023-01-25T07:46:19.257Z,103753.25
2023-01-25T07:48:51.438Z,103756.84
2023-01-25T07:51:23.982Z,103739.50
2023-01-25T07:53:53.861Z,103756.78
2023-01-25T07:56:25.088Z,103747.19
2023-01-25T07:58:53.941Z,103742.00
2023-01-25T08:01:23.355Z,103750.56
2023-01-25T08:03:54.196Z,103733.84
2023-01-25T08:06:27.841Z,103740.84
2023-01-25T08:08:56.589Z,103732.81
2023-01-25T08:11:26.927Z,103740.66
2023-01-25T08:13:55.012Z,103737.06
2023-01-25T08:16:24.327Z,103733.50
2023-01-25T08:18:54.930Z,103711.88
2023-01-25T08:21:29.107Z,103727.31
2023-01-25T08:23:58.629Z,103729.97
2023-01-25T08:26:28.405Z,103722.06
2023-01-25T08:28:56.569Z,103715.97
2023-01-25T08:31:27.583Z,103732.34
2023-01-25T08:33:58.426Z,103734.91
2023-01-25T08:36:29.399Z,103714.88
2023-01-25T08:38:58.484Z,103714.81
2023-01-25T08:41:28.445Z,103725.06
2023-01-25T08:43:56.616Z,103722.38
2023-01-25T08:46:29.363Z,103722.31
2023-01-25T08:49:05.802Z,103715.16
2023-01-25T08:51:34.295Z,103719.47
2023-01-25T08:54:12.852Z,103698.28
2023-01-25T08:56:42.492Z,103687.75
2023-01-25T08:59:14.534Z,103679.97
2023-01-25T09:01:42.728Z,103680.47
2023-01-25T09:04:10.807Z,103653.72
2023-01-25T09:06:38.921Z,103671.06
2023-01-25T09:09:09.377Z,103660.53
2023-01-25T09:11:40.326Z,103671.00
2023-01-25T09:14:09.932Z,103685.44
2023-01-25T09:16:38.003Z,103673.06
2023-01-25T09:19:07.574Z,103642.81
2023-01-25T09:21:37.332Z,103676.50
2023-01-25T09:24:07.588Z,103673.78
2023-01-25T09:26:37.178Z,103676.44
2023-01-25T09:29:08.013Z,103652.97
2023-01-25T09:31:43.017Z,103688.44
2023-01-25T09:34:14.637Z,103674.31
2023-01-25T09:36:45.378Z,103636.16
2023-01-25T09:39:13.569Z,103653.03
2023-01-25T09:42:06.577Z,103641.66
2023-01-25T09:44:47.636Z,103618.00
2023-01-25T09:47:21.978Z,103638.53
2023-01-25T09:50:00.680Z,103638.34
2023-01-25T09:52:57.364Z,103594.00
2023-01-25T09:55:29.542Z,103630.09
2023-01-25T09:58:00.428Z,103634.44
2023-01-25T10:00:34.029Z,103627.38
2023-01-25T10:03:16.505Z,103622.91
2023-01-25T10:05:46.029Z,103601.03
2023-01-25T10:08:19.853Z,103606.88
2023-01-25T10:10:50.847Z,103613.88
2023-01-25T10:13:20.782Z,103608.59
2023-01-25T10:15:52.655Z,103592.66
2023-01-25T10:18:25.470Z,103598.88
2023-01-25T10:20:57.802Z,103580.38
2023-01-25T10:23:36.515Z,103591.53
2023-01-25T10:26:07.887Z,103575.69
2023-01-25T10:28:46.056Z,103565.94
2023-01-25T10:31:19.268Z,103541.50
2023-01-25T10:33:49.951Z,103562.81
2023-01-25T10:36:24.099Z,103548.66
2023-01-25T10:39:03.959Z,103556.09
2023-01-25T10:41:35.975Z,103577.00
2023-01-25T10:47:20.358Z,103565.72
2023-01-25T10:49:51.424Z,103595.25
2023-01-25T10:52:21.488Z,103562.44
2023-01-25T10:54:50.967Z,103573.03
2023-01-25T10:57:20.324Z,103577.84
2023-01-25T10:59:51.615Z,103581.38
2023-01-25T11:02:38.148Z,103565.41
2023-01-25T11:05:29.347Z,103592.91
2023-01-25T11:07:57.580Z,103586.66
2023-01-25T11:10:31.711Z,103571.75
2023-01-25T11:13:20.969Z,103576.56
2023-01-25T11:15:50.914Z,103577.06
2023-01-25T11:18:20.732Z,103563.75
2023-01-25T11:20:52.414Z,103543.69
2023-01-25T11:23:24.031Z,103552.09
2023-01-25T11:25:52.372Z,103568.69
2023-01-25T11:28:25.628Z,103569.50
2023-01-25T11:30:54.187Z,103553.63
2023-01-25T11:33:23.586Z,103564.06
2023-01-25T11:36:07.444Z,103554.75
2023-01-25T11:38:36.117Z,103547.03
2023-01-25T11:41:08.416Z,103541.75
2023-01-25T11:43:49.428Z,103567.03
2023-01-25T11:46:22.962Z,103559.94
2023-01-25T11:49:03.996Z,103559.03
2023-01-25T11:51:40.372Z,103555.84
2023-01-25T11:54:42.818Z,103565.03
2023-01-25T11:57:22.986Z,103546.50
2023-01-25T11:59:59.293Z,103514.47
2023-01-25T12:02:45.197Z,103522.72
2023-01-25T12:05:41.226Z,103539.91
2023-01-25T12:08:21.244Z,103545.19
2023-01-25T12:10:52.103Z,103538.06
2023-01-25T12:13:22.806Z,103519.13
2023-01-25T12:16:15.792Z,103538.06
2023-01-25T12:19:15.444Z,103524.56
2023-01-25T12:22:03.411Z,103545.09
2023-01-25T12:24:50.483Z,103524.03
2023-01-25T12:27:38.973Z,103529.88
2023-01-25T12:30:14.595Z,103521.94
2023-01-25T12:32:45.553Z,103512.16
2023-01-25T12:35:25.090Z,103510.44
2023-01-25T12:37:55.859Z,103478.47
2023-01-25T12:40:30.689Z,103454.88
2023-01-25T12:42:59.768Z,103421.69
2023-01-25T12:45:30.871Z,103436.75
2023-01-25T12:48:03.857Z,103421.75
2023-01-25T12:50:34.779Z,103445.38
2023-01-25T12:53:18.820Z,103426.03
2023-01-25T12:55:48.410Z,103427.50
2023-01-25T12:58:26.476Z,103428.28
2023-01-25T13:01:04.349Z,103404.47
2023-01-25T13:03:36.578Z,103400.91
2023-01-25T13:06:11.199Z,103400.63
2023-01-25T13:08:44.682Z,103403.97
2023-01-25T13:11:17.610Z,103408.22
2023-01-25T13:13:45.683Z,103400.19
2023-01-25T13:16:43.432Z,103404.22
2023-01-25T13:19:22.212Z,103390.91
2023-01-25T13:21:59.445Z,103378.59
2023-01-25T13:24:28.029Z,103383.19
2023-01-25T13:27:06.349Z,103379.44
2023-01-25T13:29:59.197Z,103379.38
2023-01-25T13:33:06.105Z,103368.59
2023-01-25T13:35:41.483Z,103363.19
2023-01-25T13:38:40.009Z,103352.53
2023-01-25T13:41:17.427Z,103354.81
2023-01-25T13:44:13.375Z,103334.34
2023-01-25T13:46:41.410Z,103345.03
2023-01-25T13:49:30.478Z,103344.72
2023-01-25T13:52:00.640Z,103335.03
2023-01-25T13:54:28.776Z,103337.81
2023-01-25T13:57:04.912Z,103335.63
2023-01-25T13:59:34.625Z,103325.38
2023-01-25T14:02:02.969Z,103311.00
2023-01-25T14:04:31.693Z,103317.41
2023-01-25T14:07:00.815Z,103309.34
2023-01-25T14:09:28.988Z,103315.44
2023-01-25T14:11:57.855Z,103310.38
2023-01-25T14:14:27.032Z,103302.41
2023-01-25T14:17:16.668Z,103294.28
2023-01-25T14:19:45.355Z,103288.09
2023-01-25T14:22:16.455Z,103304.28
2023-01-25T14:24:44.502Z,103309.16
2023-01-25T14:27:15.333Z,103302.13
2023-01-25T14:29:49.140Z,103295.88
2023-01-25T14:32:21.729Z,103299.03
2023-01-25T14:34:50.225Z,103274.53
2023-01-25T14:37:21.267Z,103258.63
2023-01-25T14:39:50.052Z,103274.63
2023-01-25T14:42:18.922Z,103264.06
2023-01-25T14:44:47.010Z,103284.81
2023-01-25T14:47:33.441Z,103289.75
2023-01-25T14:50:30.495Z,103289.59
2023-01-25T14:52:58.861Z,103285.13
2023-01-25T14:55:29.363Z,103277.03
2023-01-25T14:58:00.210Z,103283.34
2023-01-25T15:00:31.868Z,103276.31
2023-01-25T15:03:02.782Z,103281.69
2023-01-25T15:05:33.040Z,103292.06
2023-01-25T15:08:15.685Z,103280.94
2023-01-25T15:10:51.863Z,103274.09
2023-01-25T15:13:25.732Z,103271.94
2023-01-25T15:15:57.963Z,103261.47
2023-01-25T15:18:51.045Z,103283.91
2023-01-25T15:21:20.213Z,103266.63
2023-01-25T15:23:48.939Z,103272.41
2023-01-25T15:26:24.625Z,103259.00
2023-01-25T15:29:09.193Z,103253.84
2023-01-25T15:31:40.145Z,103257.50
2023-01-25T15:34:12.171Z,103269.44
2023-01-25T15:36:40.379Z,103254.63
2023-01-25T15:39:19.162Z,103268.50
2023-01-25T15:41:47.498Z,103262.16
2023-01-25T15:44:17.719Z,103257.69
2023-01-25T15:46:47.343Z,103264.97
2023-01-25T15:49:21.087Z,103231.97
2023-01-25T15:51:54.050Z,103257.38
2023-01-25T15:54:23.999Z,103244.44
2023-01-25T15:56:53.859Z,103240.69
2023-01-25T15:59:22.380Z,103232.72
2023-01-25T16:01:50.758Z,103254.13
2023-01-25T16:04:25.488Z,103241.78
2023-01-25T16:06:55.486Z,103236.63
2023-01-25T16:09:25.552Z,103242.72
2023-01-25T16:11:56.478Z,103245.03
2023-01-25T16:14:32.098Z,103213.09
2023-01-25T16:17:02.718Z,103210.53
2023-01-25T16:19:33.282Z,103214.13
2023-01-25T16:22:02.355Z,103220.69
2023-01-25T16:24:31.736Z,103235.53
2023-01-25T16:27:00.403Z,103202.25
2023-01-25T16:29:29.676Z,103229.28
2023-01-25T16:31:58.077Z,103217.78
2023-01-25T16:34:30.086Z,103217.78
2023-01-25T16:37:20.052Z,103198.47
2023-01-25T16:39:49.650Z,103212.84
2023-01-25T16:42:18.060Z,103202.75
2023-01-25T16:44:46.690Z,103215.66
2023-01-25T16:47:18.662Z,103218.97
2023-01-25T16:49:50.541Z,103211.72
2023-01-25T16:52:27.479Z,103229.00
2023-01-25T16:54:56.175Z,103222.91
2023-01-25T16:57:26.898Z,103222.06
2023-01-25T16:59:55.983Z,103224.81
2023-01-25T17:02:27.390Z,103192.97
2023-01-25T17:04:56.043Z,103197.06
2023-01-25T17:07:27.961Z,103215.88
2023-01-25T17:10:00.824Z,103206.84
2023-01-25T17:12:31.012Z,103191.84
2023-01-25T17:15:00.328Z,103187.56
2023-01-25T17:17:33.311Z,103192.13
2023-01-25T17:20:02.663Z,103211.78
2023-01-25T17:22:37.287Z,103217.78
2023-01-25T17:25:05.579Z,103218.72
2023-01-25T17:27:33.600Z,103211.78
2023-01-25T17:30:09.511Z,103217.03
2023-01-25T17:32:37.750Z,103210.00
2023-01-25T17:35:07.302Z,103214.38
2023-01-25T17:37:40.976Z,103211.63
2023-01-25T17:40:11.521Z,103206.91
2023-01-25T17:42:42.971Z,103205.81
2023-01-25T17:45:12.134Z,103205.63
2023-01-25T17:47:40.403Z,103219.69
2023-01-25T17:50:12.715Z,103199.44
2023-01-25T17:52:51.933Z,103178.75
2023-01-25T17:55:19.910Z,103190.38
2023-01-25T17:57:51.303Z,103184.72
2023-01-25T18:00:20.229Z,103163.84
2023-01-25T18:02:50.356Z,103184.19
2023-01-25T18:05:18.545Z,103191.22
2023-01-25T18:07:47.926Z,103189.50
2023-01-25T18:10:16.572Z,103198.06
2023-01-25T18:13:03.571Z,103201.47
2023-01-25T18:15:33.406Z,103187.63
2023-01-25T18:18:02.116Z,103187.78
2023-01-25T18:20:31.637Z,103180.19
2023-01-25T18:23:10.089Z,103163.16
2023-01-25T18:25:40.661Z,103174.06
2023-01-25T18:28:10.102Z,103184.59
2023-01-25T18:30:42.796Z,103188.63
2023-01-25T18:33:10.906Z,103186.16
2023-01-25T18:35:40.640Z,103186.16
2023-01-25T18:38:12.880Z,103192.16
2023-01-25T18:40:41.863Z,103169.56
2023-01-25T18:43:11.591Z,103180.66
2023-01-25T18:45:42.074Z,103175.19
2023-01-25T18:48:13.237Z,103180.88
2023-01-25T18:50:41.819Z,103195.06
2023-01-25T18:53:11.142Z,103198.06
2023-01-25T18:55:39.280Z,103194.72
2023-01-25T18:58:22.556Z,103209.63
2023-01-25T19:00:59.259Z,103209.63
2023-01-25T19:03:30.516Z,103205.25
2023-01-25T19:06:01.706Z,103201.66
2023-01-25T19:08:34.223Z,103203.47
2023-01-25T19:11:02.789Z,103208.25
2023-01-25T19:13:32.391Z,103214.41
2023-01-25T19:16:02.829Z,103206.69
2023-01-25T19:18:35.211Z,103204.38
2023-01-25T19:21:03.623Z,103186.34
2023-01-25T19:23:35.253Z,103179.25
2023-01-25T19:26:03.353Z,103176.81
2023-01-25T19:28:31.328Z,103189.56
2023-01-25T19:31:07.116Z,103185.28
2023-01-25T19:33:35.456Z,103193.13
2023-01-25T19:36:05.092Z,103202.19
2023-01-25T19:38:40.449Z,103202.53
2023-01-25T19:41:09.567Z,103213.28
2023-01-25T19:43:37.571Z,103198.41
2023-01-25T19:46:10.054Z,103194.66
2023-01-25T19:48:38.177Z,103201.59
2023-01-25T19:51:12.607Z,103190.41
2023-01-25T19:53:47.328Z,103196.78
2023-01-25T19:56:16.349Z,103187.63
2023-01-25T19:58:46.935Z,103215.19
2023-01-25T20:01:15.922Z,103209.56
2023-01-25T20:03:44.260Z,103219.72
2023-01-25T20:06:12.888Z,103224.06
2023-01-25T20:08:43.366Z,103222.84
2023-01-25T20:11:13.393Z,103218.22
2023-01-25T20:13:41.424Z,103220.97
2023-01-25T20:16:11.788Z,103212.38
2023-01-25T20:18:40.032Z,103205.38
2023-01-25T20:21:08.810Z,103212.38
2023-01-25T20:23:40.478Z,103201.94
2023-01-25T20:26:14.801Z,103227.56
2023-01-25T20:28:43.329Z,103232.44
2023-01-25T20:31:21.944Z,103239.22
2023-01-25T20:33:51.291Z,103237.66
2023-01-25T20:36:19.643Z,103205.16
2023-01-25T20:38:47.788Z,103234.16
2023-01-25T20:41:23.090Z,103236.03
2023-01-25T20:43:55.187Z,103250.19
2023-01-25T20:46:23.482Z,103260.94
2023-01-25T20:48:52.115Z,103245.19
2023-01-25T20:51:23.856Z,103247.16
2023-01-25T20:53:54.579Z,103238.09
2023-01-25T20:56:23.987Z,103267.78
2023-01-25T20:58:52.084Z,103286.59
2023-01-25T21:01:21.501Z,103270.31
2023-01-25T21:03:51.266Z,103290.31
2023-01-25T21:06:19.322Z,103282.31
2023-01-25T21:08:47.410Z,103266.94
2023-01-25T21:11:15.723Z,103283.72
2023-01-25T21:13:45.080Z,103278.66
2023-01-25T21:16:14.978Z,103275.16
2023-01-25T21:18:43.699Z,103257.78
2023-01-25T21:21:12.937Z,103270.03
2023-01-25T21:23:42.368Z,103269.19
2023-01-25T21:26:14.361Z,103268.34
2023-01-25T21:28:51.447Z,103289.63
2023-01-25T21:31:20.218Z,103293.06
2023-01-25T21:33:50.813Z,103289.91
2023-01-25T21:36:21.351Z,103285.53
2023-01-25T21:38:50.100Z,103261.28
2023-01-25T21:41:19.887Z,103291.75
2023-01-25T21:44:08.931Z,103281.53
2023-01-25T21:46:38.611Z,103254.72
2023-01-25T21:49:25.682Z,103272.72
2023-01-25T21:51:56.800Z,103274.88
2023-01-25T21:54:26.490Z,103270.53
2023-01-25T21:56:55.755Z,103278.47
2023-01-25T21:59:32.708Z,103278.00
2023-01-25T22:02:00.687Z,103293.59
2023-01-25T22:04:28.688Z,103276.88
2023-01-25T22:06:56.724Z,103276.16
2023-01-25T22:09:24.781Z,103281.66
2023-01-25T22:11:54.200Z,103277.72
2023-01-25T22:14:23.548Z,103291.88
2023-01-25T22:16:53.276Z,103296.34
2023-01-25T22:19:21.296Z,103298.34
2023-01-25T22:21:50.534Z,103306.00
2023-01-25T22:24:18.576Z,103304.44
2023-01-25T22:26:51.914Z,103298.53
2023-01-25T22:29:19.955Z,103302.25
2023-01-25T22:31:48.076Z,103295.50
2023-01-25T22:34:17.655Z,103283.28
2023-01-25T22:36:48.654Z,103271.25
2023-01-25T22:39:16.912Z,103277.34
2023-01-25T22:41:44.874Z,103303.44
2023-01-25T22:44:14.602Z,103291.09
2023-01-25T22:46:43.009Z,103272.66
2023-01-25T22:49:11.025Z,103291.56
2023-01-25T22:51:42.704Z,103271.94
2023-01-25T22:54:10.717Z,103278.78
2023-01-25T22:56:38.717Z,103293.63
2023-01-25T22:59:08.080Z,103285.69
2023-01-25T23:01:36.063Z,103294.66
2023-01-25T23:04:04.173Z,103289.38
2023-01-25T23:06:34.175Z,103291.03
2023-01-25T23:09:05.380Z,103291.09
2023-01-25T23:11:39.337Z,103281.50
2023-01-25T23:14:27.826Z,103286.25
2023-01-25T23:17:25.676Z,103302.06
2023-01-25T23:19:53.054Z,103287.66
2023-01-25T23:22:24.140Z,103282.16
2023-01-25T23:24:53.995Z,103278.13
2023-01-25T23:27:22.019Z,103270.16
2023-01-25T23:29:51.836Z,103287.72
2023-01-25T23:32:20.019Z,103295.09
2023-01-25T23:34:53.138Z,103291.69
2023-01-25T23:37:24.720Z,103286.41
2023-01-25T23:39:54.266Z,103289.97
2023-01-25T23:42:26.162Z,103279.66
2023-01-25T23:44:56.846Z,103281.59
2023-01-25T23:47:28.069Z,103281.06
2023-01-25T23:49:58.876Z,103288.06
2023-01-25T23:52:26.836Z,103275.25
2023-01-25T23:55:02.530Z,103293.28
2023-01-25T23:57:31.008Z,103275.06
2023-01-25T23:59:58.953Z,103278.69
